Time;durP1;ratioP1;P1;durP2;ratioP2;P2;SDS_P1;SDS_P2;PMS_P1;PMS_P2;Temp;Humidity;BMP_temperature;BMP_pressure;BME280_temperature;BME280_humidity;BME280_pressure;Samples;Min_cycle;Max_cycle;Signal;HPM_P1;HPM_P2
2021/05/15 00:02:09;;;;;;;;;;;19.70;58.30;;;;;;5000049;28;19922;-67
2021/05/15 00:04:34;;;;;;;;;;;19.80;58.40;;;;;;5004294;28;19922;-67
2021/05/15 00:06:59;;;;;;;;;;;19.80;58.40;;;;;;5001101;28;19956;-67
2021/05/15 00:09:25;;;;;;;;;;;19.70;58.30;;;;;;5005152;28;19918;-68
2021/05/15 00:11:50;;;;;;;;;;;19.80;58.40;;;;;;5002756;28;19917;-68
2021/05/15 00:14:16;;;;;;;;;;;19.70;58.30;;;;;;4985402;28;20372;-68
2021/05/15 00:16:41;;;;;;;;;;;19.70;58.30;;;;;;5004993;28;20000;-68
2021/05/15 00:19:07;;;;;;;;;;;19.70;58.30;;;;;;5004068;28;19917;-68
2021/05/15 00:21:32;;;;;;;;;;;19.80;58.30;;;;;;4993871;28;19914;-67
2021/05/15 00:23:58;;;;;;;;;;;19.80;58.30;;;;;;4999305;28;19924;-67
2021/05/15 00:26:23;;;;;;;;;;;19.80;58.30;;;;;;5005322;28;19987;-68
2021/05/15 00:28:49;;;;;;;;;;;19.80;58.30;;;;;;5005777;28;20521;-68
2021/05/15 00:31:14;;;;;;;;;;;19.70;58.20;;;;;;5002013;28;19929;-68
2021/05/15 00:33:39;;;;;;;;;;;19.70;58.20;;;;;;5000835;28;19934;-67
2021/05/15 00:36:05;;;;;;;;;;;19.80;58.30;;;;;;4995161;28;19928;-67
2021/05/15 00:38:31;;;;;;;;;;;19.80;58.30;;;;;;5003744;28;19922;-67
2021/05/15 00:40:56;;;;;;;;;;;19.70;58.20;;;;;;4966276;28;19924;-67
2021/05/15 00:43:22;;;;;;;;;;;19.70;58.20;;;;;;5002338;28;20003;-68
2021/05/15 00:45:47;;;;;;;;;;;19.70;58.20;;;;;;5003603;28;19922;-68
2021/05/15 00:48:13;;;;;;;;;;;19.70;58.10;;;;;;5004646;28;19925;-67
2021/05/15 00:50:38;;;;;;;;;;;19.70;58.10;;;;;;4986956;28;19918;-68
2021/05/15 00:53:04;;;;;;;;;;;19.70;58.10;;;;;;5003313;28;20344;-68
2021/05/15 00:55:29;;;;;;;;;;;19.80;58.10;;;;;;5002133;28;20047;-68
2021/05/15 00:57:55;;;;;;;;;;;19.70;58.10;;;;;;5004583;28;19918;-68
2021/05/15 01:00:21;;;;;;;;;;;19.70;58.10;;;;;;5005462;28;19929;-68
2021/05/15 01:02:46;;;;;;;;;;;19.70;58.10;;;;;;4996767;28;20396;-67
2021/05/15 01:05:12;;;;;;;;;;;19.70;58.10;;;;;;5002148;28;19918;-68
2021/05/15 01:07:37;;;;;;;;;;;19.70;58.00;;;;;;4971432;28;19956;-68
2021/05/15 01:10:03;;;;;;;;;;;19.70;58.00;;;;;;5005760;28;19968;-67
2021/05/15 01:12:30;;;;;;;;;;;19.70;58.00;;;;;;4987063;28;20101;-68
2021/05/15 01:14:55;;;;;;;;;;;19.70;58.00;;;;;;4999635;28;19971;-68
2021/05/15 01:17:20;;;;;;;;;;;19.70;58.00;;;;;;4999952;28;19925;-68
2021/05/15 01:19:46;;;;;;;;;;;19.70;58.00;;;;;;5002839;28;20528;-68
2021/05/15 01:22:12;;;;;;;;;;;19.70;58.00;;;;;;4983628;28;19929;-67
2021/05/15 01:24:38;;;;;;;;;;;19.70;58.00;;;;;;5003801;28;19924;-67
2021/05/15 01:27:07;;;;;;;;;;;19.70;58.00;;;;;;4999996;28;19921;-67
2021/05/15 01:29:32;;;;;;;;;;;19.70;57.90;;;;;;4984344;28;19924;-67
2021/05/15 01:31:58;;;;;;;;;;;19.70;57.90;;;;;;5004101;28;19917;-67
2021/05/15 01:34:23;;;;;;;;;;;19.70;57.90;;;;;;4980333;28;19925;-68
2021/05/15 01:36:49;;;;;;;;;;;19.70;57.90;;;;;;5002505;28;19944;-67
2021/05/15 01:39:15;;;;;;;;;;;19.70;57.90;;;;;;5002272;28;20395;-65
2021/05/15 01:41:40;;;;;;;;;;;19.70;57.80;;;;;;4998765;28;19925;-67
2021/05/15 01:44:06;;;;;;;;;;;19.70;57.80;;;;;;5001562;28;19921;-67
2021/05/15 01:46:31;;;;;;;;;;;19.70;57.90;;;;;;4985450;28;20389;-67
2021/05/15 01:48:57;;;;;;;;;;;19.70;57.80;;;;;;5002942;28;19917;-68
2021/05/15 01:51:22;;;;;;;;;;;19.70;57.80;;;;;;5002838;28;20027;-66
2021/05/15 01:53:49;;;;;;;;;;;19.70;57.80;;;;;;4985903;28;19918;-67
2021/05/15 01:56:15;;;;;;;;;;;19.70;57.80;;;;;;5003249;28;19922;-67
2021/05/15 01:58:40;;;;;;;;;;;19.70;57.80;;;;;;4986048;28;20528;-66
2021/05/15 02:01:06;;;;;;;;;;;19.70;57.70;;;;;;4992472;28;19957;-68
2021/05/15 02:03:32;;;;;;;;;;;19.60;57.70;;;;;;5000489;28;20328;-67
2021/05/15 02:05:57;;;;;;;;;;;19.70;57.70;;;;;;5003361;28;20474;-67
2021/05/15 02:08:23;;;;;;;;;;;19.70;57.70;;;;;;4997609;28;19918;-67
2021/05/15 02:10:49;;;;;;;;;;;19.60;57.70;;;;;;5003243;28;19921;-67
2021/05/15 02:13:14;;;;;;;;;;;19.60;57.70;;;;;;5002987;28;19979;-67
2021/05/15 02:15:39;;;;;;;;;;;19.60;57.70;;;;;;4996221;28;19968;-67
2021/05/15 02:18:05;;;;;;;;;;;19.60;57.60;;;;;;5002181;28;19930;-68
2021/05/15 02:20:31;;;;;;;;;;;19.60;57.60;;;;;;5002217;28;19922;-67
2021/05/15 02:22:57;;;;;;;;;;;19.60;57.60;;;;;;5003402;28;20497;-68
2021/05/15 02:25:23;;;;;;;;;;;19.60;57.70;;;;;;4964097;28;20028;-68
2021/05/15 02:27:48;;;;;;;;;;;19.60;57.60;;;;;;5003330;28;20005;-67
2021/05/15 02:30:14;;;;;;;;;;;19.60;57.60;;;;;;4985415;28;19948;-67
2021/05/15 02:32:39;;;;;;;;;;;19.60;57.60;;;;;;5002829;28;19917;-67
2021/05/15 02:35:05;;;;;;;;;;;19.60;57.60;;;;;;4998526;28;19930;-67
2021/05/15 02:37:30;;;;;;;;;;;19.60;57.60;;;;;;5003428;28;19925;-67
2021/05/15 02:39:56;;;;;;;;;;;19.60;57.50;;;;;;5003048;28;20004;-67
2021/05/15 02:42:21;;;;;;;;;;;19.60;57.50;;;;;;5003056;28;19928;-67
2021/05/15 02:44:47;;;;;;;;;;;19.60;57.50;;;;;;4981822;28;19975;-67
2021/05/15 02:47:12;;;;;;;;;;;19.50;57.50;;;;;;4981849;28;20608;-67
2021/05/15 02:49:38;;;;;;;;;;;19.60;57.50;;;;;;5002718;28;19925;-68
2021/05/15 02:52:03;;;;;;;;;;;19.60;57.50;;;;;;5003113;28;21490;-67
2021/05/15 02:54:29;;;;;;;;;;;19.50;57.40;;;;;;4984646;28;19917;-67
2021/05/15 02:56:54;;;;;;;;;;;19.60;57.50;;;;;;4998364;28;19949;-67
2021/05/15 02:59:19;;;;;;;;;;;19.60;57.40;;;;;;5003131;28;19926;-67
2021/05/15 03:01:45;;;;;;;;;;;19.60;57.40;;;;;;4991505;28;19926;-66
2021/05/15 03:04:10;;;;;;;;;;;19.50;57.40;;;;;;5006241;28;20355;-67
2021/05/15 03:06:36;;;;;;;;;;;19.50;57.40;;;;;;5002352;28;19928;-67
2021/05/15 03:09:01;;;;;;;;;;;19.50;57.40;;;;;;5002735;28;19949;-67
2021/05/15 03:11:27;;;;;;;;;;;19.50;57.40;;;;;;5005748;28;20028;-67
2021/05/15 03:13:52;;;;;;;;;;;19.50;57.40;;;;;;5007225;28;20328;-67
2021/05/15 03:16:18;;;;;;;;;;;19.50;57.40;;;;;;5006255;28;19924;-66
2021/05/15 03:18:43;;;;;;;;;;;19.50;57.30;;;;;;5006398;28;20627;-67
2021/05/15 03:21:08;;;;;;;;;;;19.50;57.30;;;;;;5005984;28;19924;-67
2021/05/15 03:23:34;;;;;;;;;;;19.50;57.30;;;;;;5025515;23;19940;-52
2021/05/15 03:25:59;;;;;;;;;;;19.50;57.30;;;;;;5024112;28;19925;-51
2021/05/15 03:28:25;;;;;;;;;;;19.50;57.30;;;;;;5023468;28;19921;-52
2021/05/15 03:30:50;;;;;;;;;;;19.50;57.30;;;;;;5024009;28;19921;-52
2021/05/15 03:33:16;;;;;;;;;;;19.50;57.30;;;;;;5005869;28;19963;-51
2021/05/15 03:35:41;;;;;;;;;;;19.50;57.30;;;;;;5023451;28;19959;-52
2021/05/15 03:38:07;;;;;;;;;;;19.50;57.20;;;;;;5023783;28;20007;-53
2021/05/15 03:40:32;;;;;;;;;;;19.50;57.20;;;;;;5018951;28;19932;-50
2021/05/15 03:42:58;;;;;;;;;;;19.50;57.30;;;;;;5023571;28;20271;-50
2021/05/15 03:45:23;;;;;;;;;;;19.50;57.20;;;;;;5023325;28;19929;-52
2021/05/15 03:47:49;;;;;;;;;;;19.50;57.20;;;;;;5023090;28;19921;-52
2021/05/15 03:50:14;;;;;;;;;;;19.50;57.20;;;;;;5005758;28;19925;-52
2021/05/15 03:52:40;;;;;;;;;;;19.50;57.20;;;;;;5023705;28;19928;-52
2021/05/15 03:55:06;;;;;;;;;;;19.50;57.20;;;;;;5023034;28;20527;-51
2021/05/15 03:57:32;;;;;;;;;;;19.50;57.20;;;;;;5022225;28;19917;-52
2021/05/15 03:59:57;;;;;;;;;;;19.50;57.20;;;;;;5022554;28;19925;-49
2021/05/15 04:02:24;;;;;;;;;;;19.50;57.20;;;;;;5005956;28;19921;-51
2021/05/15 04:04:52;;;;;;;;;;;19.50;57.20;;;;;;5023301;28;19925;-49
2021/05/15 04:07:18;;;;;;;;;;;19.50;57.20;;;;;;5022897;28;20390;-53
2021/05/15 04:09:43;;;;;;;;;;;19.50;57.20;;;;;;5022279;28;19921;-51
2021/05/15 04:12:09;;;;;;;;;;;19.50;57.10;;;;;;5022669;28;19960;-53
2021/05/15 04:14:46;;;;;;;;;;;19.50;57.10;;;;;;5004288;28;19917;-53
2021/05/15 04:19:37;;;;;;;;;;;19.50;57.20;;;;;;5023180;28;19948;-54
2021/05/15 04:22:03;;;;;;;;;;;19.50;57.10;;;;;;5023260;28;19921;-51
2021/05/15 04:24:29;;;;;;;;;;;19.50;57.20;;;;;;5023790;28;19941;-50
2021/05/15 04:26:55;;;;;;;;;;;19.50;57.20;;;;;;5022331;28;19940;-57
2021/05/15 04:29:21;;;;;;;;;;;19.50;57.10;;;;;;5023867;28;19928;-49
2021/05/15 04:31:47;;;;;;;;;;;19.50;57.10;;;;;;5004707;28;19917;-54
2021/05/15 04:34:12;;;;;;;;;;;19.50;57.00;;;;;;5005160;28;19939;-50
2021/05/15 04:36:37;;;;;;;;;;;19.50;57.00;;;;;;5020729;28;19921;-51
2021/05/15 04:39:03;;;;;;;;;;;19.60;57.10;;;;;;5022883;28;20375;-50
2021/05/15 04:41:29;;;;;;;;;;;19.60;57.10;;;;;;5004504;28;20015;-54
2021/05/15 04:43:54;;;;;;;;;;;19.60;57.10;;;;;;5005917;28;19932;-52
2021/05/15 04:46:20;;;;;;;;;;;19.60;57.10;;;;;;5004023;28;19931;-49
2021/05/15 04:48:45;;;;;;;;;;;19.60;57.20;;;;;;5022930;28;19928;-52
2021/05/15 04:51:11;;;;;;;;;;;19.60;57.20;;;;;;5021255;28;19917;-53
2021/05/15 04:53:36;;;;;;;;;;;19.60;57.20;;;;;;5022482;28;19940;-50
2021/05/15 04:56:02;;;;;;;;;;;19.60;57.20;;;;;;5022158;28;19932;-50
2021/05/15 04:58:27;;;;;;;;;;;19.60;57.30;;;;;;5021786;28;20397;-51
2021/05/15 05:00:53;;;;;;;;;;;19.60;57.30;;;;;;5022297;28;19924;-49
2021/05/15 05:03:18;;;;;;;;;;;19.60;57.30;;;;;;5022444;28;19917;-53
2021/05/15 05:05:44;;;;;;;;;;;19.60;57.30;;;;;;5022494;28;19923;-52
2021/05/15 05:08:09;;;;;;;;;;;19.60;57.40;;;;;;5022093;28;20267;-53
2021/05/15 05:10:35;;;;;;;;;;;19.60;57.40;;;;;;5020970;28;20382;-50
2021/05/15 05:13:03;;;;;;;;;;;19.60;57.40;;;;;;5022563;28;19921;-52
2021/05/15 05:15:28;;;;;;;;;;;19.60;57.40;;;;;;5019488;28;20457;-52
2021/05/15 05:17:54;;;;;;;;;;;19.50;57.30;;;;;;5022521;28;19961;-50
2021/05/15 05:20:19;;;;;;;;;;;19.60;57.40;;;;;;5021828;28;20412;-54
2021/05/15 05:22:45;;;;;;;;;;;19.60;57.40;;;;;;5021533;28;19929;-52
2021/05/15 05:25:12;;;;;;;;;;;19.60;57.50;;;;;;5022175;28;19925;-53
2021/05/15 05:27:40;;;;;;;;;;;19.60;57.50;;;;;;5020824;28;20449;-52
2021/05/15 05:30:06;;;;;;;;;;;19.60;57.50;;;;;;5021491;28;19917;-54
2021/05/15 05:32:31;;;;;;;;;;;19.60;57.40;;;;;;5004143;28;20485;-52
2021/05/15 05:34:57;;;;;;;;;;;19.60;57.40;;;;;;5004680;28;19917;-50
2021/05/15 05:37:22;;;;;;;;;;;19.60;57.40;;;;;;5017992;28;19943;-55
2021/05/15 05:39:48;;;;;;;;;;;19.60;57.50;;;;;;5021200;28;19924;-55
2021/05/15 05:42:13;;;;;;;;;;;19.60;57.50;;;;;;5003542;28;19928;-51
2021/05/15 05:44:40;;;;;;;;;;;19.60;57.60;;;;;;5021469;28;19940;-50
2021/05/15 05:47:05;;;;;;;;;;;19.60;57.60;;;;;;5003136;28;20473;-50
2021/05/15 05:49:31;;;;;;;;;;;19.50;57.60;;;;;;5021456;28;19925;-51
2021/05/15 05:51:56;;;;;;;;;;;19.60;57.70;;;;;;5020812;28;20337;-53
2021/05/15 05:54:22;;;;;;;;;;;19.60;57.70;;;;;;5022460;28;19925;-49
2021/05/15 05:56:47;;;;;;;;;;;19.60;57.80;;;;;;5021216;28;20015;-50
2021/05/15 05:59:13;;;;;;;;;;;19.60;57.70;;;;;;5020614;28;19932;-55
2021/05/15 06:01:39;;;;;;;;;;;19.60;57.80;;;;;;5020433;28;19926;-49
2021/05/15 06:04:04;;;;;;;;;;;19.60;57.80;;;;;;5021664;28;19947;-52
2021/05/15 06:06:30;;;;;;;;;;;19.60;57.80;;;;;;5020608;28;19928;-49
2021/05/15 06:08:56;;;;;;;;;;;19.60;57.80;;;;;;5003566;28;19929;-54
2021/05/15 06:11:22;;;;;;;;;;;19.60;57.90;;;;;;5021008;28;19921;-54
2021/05/15 06:13:48;;;;;;;;;;;19.60;57.90;;;;;;5021428;28;20294;-53
2021/05/15 06:16:13;;;;;;;;;;;19.60;57.90;;;;;;5021469;28;20023;-56
2021/05/15 06:18:39;;;;;;;;;;;19.60;57.90;;;;;;5021022;28;19924;-57
2021/05/15 06:21:04;;;;;;;;;;;19.60;58.00;;;;;;5021280;28;19917;-53
2021/05/15 06:23:30;;;;;;;;;;;19.60;57.90;;;;;;5020707;28;19925;-52
2021/05/15 06:25:55;;;;;;;;;;;19.60;57.90;;;;;;5021147;28;20401;-60
2021/05/15 06:28:21;;;;;;;;;;;19.60;57.80;;;;;;5021897;28;19917;-50
2021/05/15 06:30:47;;;;;;;;;;;19.60;57.90;;;;;;5020815;28;19921;-53
2021/05/15 06:33:12;;;;;;;;;;;19.60;58.00;;;;;;5021409;28;20011;-55
2021/05/15 06:35:38;;;;;;;;;;;19.60;58.00;;;;;;5020723;28;19971;-51
2021/05/15 06:38:05;;;;;;;;;;;19.60;57.90;;;;;;5022564;28;19917;-51
2021/05/15 06:40:30;;;;;;;;;;;19.60;58.10;;;;;;5024003;28;20285;-53
2021/05/15 06:42:56;;;;;;;;;;;19.60;58.20;;;;;;5025469;28;20597;-51
2021/05/15 06:45:21;;;;;;;;;;;19.60;58.40;;;;;;5025382;28;19917;-52
2021/05/15 06:47:47;;;;;;;;;;;19.60;58.70;;;;;;5005991;28;19982;-54
2021/05/15 06:50:12;;;;;;;;;;;19.60;58.90;;;;;;5024539;28;19956;-49
2021/05/15 06:52:38;;;;;;;;;;;19.60;58.90;;;;;;5024774;28;19917;-51
2021/05/15 06:55:04;;;;;;;;;;;19.60;58.90;;;;;;5025032;28;19921;-52
2021/05/15 06:57:30;;;;;;;;;;;19.60;59.50;;;;;;5002568;28;19917;-51
2021/05/15 06:59:55;;;;;;;;;;;19.50;58.80;;;;;;5024365;28;19944;-53
2021/05/15 07:02:21;;;;;;;;;;;19.50;58.70;;;;;;5024690;28;20513;-50
2021/05/15 07:04:46;;;;;;;;;;;19.60;58.80;;;;;;5024114;28;19917;-53
2021/05/15 07:07:12;;;;;;;;;;;19.60;58.70;;;;;;5024209;28;20293;-54
2021/05/15 07:09:37;;;;;;;;;;;19.60;58.60;;;;;;5024627;28;19928;-50
2021/05/15 07:12:03;;;;;;;;;;;19.60;58.50;;;;;;5023947;28;20350;-51
2021/05/15 07:14:28;;;;;;;;;;;19.60;58.40;;;;;;5025129;28;19924;-50
2021/05/15 07:16:54;;;;;;;;;;;19.60;58.30;;;;;;5024473;28;19917;-51
2021/05/15 07:19:19;;;;;;;;;;;19.60;58.20;;;;;;5024232;28;19940;-56
2021/05/15 07:21:45;;;;;;;;;;;19.60;58.30;;;;;;5023443;28;20289;-54
2021/05/15 07:24:10;;;;;;;;;;;19.60;58.20;;;;;;5024374;28;19956;-51
2021/05/15 07:26:35;;;;;;;;;;;19.60;58.10;;;;;;5023713;28;19921;-54
2021/05/15 07:29:01;;;;;;;;;;;19.60;58.00;;;;;;5024193;28;19917;-52
2021/05/15 07:31:26;;;;;;;;;;;19.60;58.00;;;;;;5024279;28;20405;-50
2021/05/15 07:33:52;;;;;;;;;;;19.60;57.80;;;;;;5025120;28;19948;-52
2021/05/15 07:36:17;;;;;;;;;;;19.60;57.80;;;;;;5006196;28;19917;-53
2021/05/15 07:38:43;;;;;;;;;;;19.60;57.80;;;;;;5020751;28;19921;-53
2021/05/15 07:41:08;;;;;;;;;;;19.60;58.20;;;;;;5024074;28;19944;-54
2021/05/15 07:43:35;;;;;;;;;;;19.60;58.50;;;;;;5024123;28;19943;-52
2021/05/15 07:46:00;;;;;;;;;;;19.60;58.70;;;;;;5006535;28;20551;-50
2021/05/15 07:48:29;;;;;;;;;;;19.60;58.90;;;;;;5024244;28;20004;-51
2021/05/15 07:50:58;;;;;;;;;;;19.60;59.00;;;;;;5023697;28;20440;-54
2021/05/15 07:53:23;;;;;;;;;;;19.60;59.00;;;;;;5023927;28;20025;-51
2021/05/15 07:55:49;;;;;;;;;;;19.60;59.00;;;;;;5023313;28;20745;-53
2021/05/15 07:58:15;;;;;;;;;;;19.60;59.00;;;;;;5023723;28;20011;-55
2021/05/15 08:00:41;;;;;;;;;;;19.60;59.00;;;;;;5021704;28;19921;-51
2021/05/15 08:03:06;;;;;;;;;;;19.60;59.00;;;;;;5023267;28;19917;-51
2021/05/15 08:05:31;;;;;;;;;;;19.60;59.10;;;;;;5022676;28;19967;-52
2021/05/15 08:07:57;;;;;;;;;;;19.60;59.10;;;;;;5022105;28;19925;-50
2021/05/15 08:10:22;;;;;;;;;;;19.60;59.20;;;;;;5005911;28;19925;-52
2021/05/15 08:12:48;;;;;;;;;;;19.60;59.10;;;;;;5022744;28;19979;-52
2021/05/15 08:15:13;;;;;;;;;;;19.60;59.10;;;;;;5023059;28;19924;-49
2021/05/15 08:17:39;;;;;;;;;;;19.60;59.20;;;;;;5022729;28;20817;-50
2021/05/15 08:20:04;;;;;;;;;;;19.60;59.70;;;;;;5022850;28;19921;-50
2021/05/15 08:22:30;;;;;;;;;;;19.60;59.10;;;;;;5021949;28;20629;-49
2021/05/15 08:24:56;;;;;;;;;;;19.60;59.10;;;;;;5023881;28;19925;-51
2021/05/15 08:27:22;;;;;;;;;;;19.60;58.90;;;;;;5021875;28;19928;-50
2021/05/15 08:29:48;;;;;;;;;;;19.60;58.80;;;;;;5005285;28;19948;-50
2021/05/15 08:32:13;;;;;;;;;;;19.70;58.90;;;;;;5022709;28;19956;-50
2021/05/15 08:34:39;;;;;;;;;;;19.60;58.90;;;;;;5004586;28;19917;-52
2021/05/15 08:37:04;;;;;;;;;;;19.60;58.80;;;;;;5021532;28;19917;-51
2021/05/15 08:39:30;;;;;;;;;;;19.60;58.90;;;;;;5022221;28;20337;-49
2021/05/15 08:41:55;;;;;;;;;;;19.60;58.80;;;;;;5022509;28;20653;-51
2021/05/15 08:44:23;;;;;;;;;;;19.60;58.80;;;;;;5022817;28;19960;-51
2021/05/15 08:46:49;;;;;;;;;;;19.60;58.70;;;;;;5021544;28;20622;-49
2021/05/15 08:49:14;;;;;;;;;;;19.60;58.70;;;;;;5003873;28;19917;-50
2021/05/15 08:51:40;;;;;;;;;;;19.60;58.90;;;;;;5003950;28;20577;-49
2021/05/15 08:54:06;;;;;;;;;;;19.60;58.80;;;;;;5003993;28;19925;-50
2021/05/15 08:56:31;;;;;;;;;;;19.60;58.70;;;;;;5017197;28;19921;-54
2021/05/15 08:58:57;;;;;;;;;;;19.60;58.70;;;;;;5018962;28;20696;-56
2021/05/15 09:01:22;;;;;;;;;;;19.60;58.70;;;;;;5018609;28;19935;-49
2021/05/15 09:03:48;;;;;;;;;;;19.60;58.70;;;;;;5019398;28;19929;-51
2021/05/15 09:06:13;;;;;;;;;;;19.70;58.70;;;;;;5018122;28;19921;-53
2021/05/15 09:08:38;;;;;;;;;;;19.70;58.70;;;;;;5018996;28;19971;-51
2021/05/15 09:11:04;;;;;;;;;;;19.70;58.70;;;;;;5002597;28;19921;-53
2021/05/15 09:13:30;;;;;;;;;;;19.60;58.50;;;;;;5022199;28;19955;-54
2021/05/15 09:15:59;;;;;;;;;;;19.60;58.50;;;;;;5004658;28;20585;-56
2021/05/15 09:18:25;;;;;;;;;;;19.60;59.10;;;;;;5004121;28;20008;-51
2021/05/15 09:20:52;;;;;;;;;;;19.70;58.40;;;;;;5020857;28;19920;-54
2021/05/15 09:23:37;;;;;;;;;;;19.70;58.30;;;;;;5021530;28;20384;-55
2021/05/15 09:26:03;;;;;;;;;;;19.60;58.20;;;;;;5017883;28;19936;-52
2021/05/15 09:28:39;;;;;;;;;;;19.60;58.10;;;;;;5021851;28;19944;-49
2021/05/15 09:31:11;;;;;;;;;;;19.60;58.20;;;;;;5021069;28;19921;-52
2021/05/15 09:33:36;;;;;;;;;;;19.70;58.10;;;;;;5022247;28;19943;-50
2021/05/15 09:36:37;;;;;;;;;;;19.70;58.10;;;;;;5021672;28;20660;-49
2021/05/15 09:39:02;;;;;;;;;;;19.70;58.60;;;;;;4955374;28;19926;-53
2021/05/15 09:41:34;;;;;;;;;;;19.70;58.10;;;;;;5002140;28;19917;-54
2021/05/15 09:44:00;;;;;;;;;;;19.70;57.90;;;;;;5021572;28;19917;-49
2021/05/15 09:46:28;;;;;;;;;;;19.70;57.90;;;;;;5021592;28;19948;-50
2021/05/15 09:48:54;;;;;;;;;;;19.70;57.80;;;;;;5020599;28;19947;-49
2021/05/15 09:51:20;;;;;;;;;;;19.70;57.70;;;;;;5021173;28;19921;-50
2021/05/15 09:53:45;;;;;;;;;;;19.70;57.60;;;;;;5021443;28;19929;-52
2021/05/15 09:56:11;;;;;;;;;;;19.70;57.60;;;;;;5021202;28;19975;-55
2021/05/15 09:58:36;;;;;;;;;;;19.70;57.40;;;;;;5020907;28;20560;-50
2021/05/15 10:01:02;;;;;;;;;;;19.70;57.30;;;;;;5001466;28;19921;-52
2021/05/15 10:03:28;;;;;;;;;;;19.80;57.30;;;;;;5021489;28;20012;-54
2021/05/15 10:06:15;;;;;;;;;;;19.70;57.20;;;;;;5021338;28;19953;-52
2021/05/15 10:08:41;;;;;;;;;;;19.70;56.90;;;;;;5016747;28;19967;-53
2021/05/15 10:11:07;;;;;;;;;;;19.70;56.80;;;;;;5020979;28;19925;-50
2021/05/15 10:13:33;;;;;;;;;;;19.70;56.70;;;;;;5002200;28;20358;-53
2021/05/15 10:15:58;;;;;;;;;;;19.80;56.80;;;;;;5020050;28;20108;-52
2021/05/15 10:18:24;;;;;;;;;;;19.80;56.70;;;;;;5021624;28;19916;-52
2021/05/15 10:20:49;;;;;;;;;;;19.70;56.60;;;;;;5020595;28;20302;-52
2021/05/15 10:23:15;;;;;;;;;;;19.70;56.60;;;;;;5002420;28;20383;-54
2021/05/15 10:25:41;;;;;;;;;;;19.70;56.60;;;;;;5003097;28;19917;-55
2021/05/15 10:28:06;;;;;;;;;;;19.70;56.60;;;;;;5002885;28;19921;-49
2021/05/15 10:30:32;;;;;;;;;;;19.70;56.50;;;;;;5019888;28;19925;-51
2021/05/15 10:32:58;;;;;;;;;;;19.70;56.60;;;;;;5002982;28;20615;-59
2021/05/15 10:35:27;;;;;;;;;;;19.70;56.50;;;;;;5003560;28;19944;-54
2021/05/15 10:38:10;;;;;;;;;;;19.70;56.40;;;;;;5001849;28;20024;-50
2021/05/15 10:40:48;;;;;;;;;;;19.70;56.40;;;;;;5020874;28;20542;-49
2021/05/15 10:43:14;;;;;;;;;;;19.70;56.40;;;;;;5018477;28;20504;-49
2021/05/15 10:45:40;;;;;;;;;;;19.70;56.50;;;;;;5020849;28;19917;-50
2021/05/15 10:48:12;;;;;;;;;;;19.70;56.50;;;;;;5025643;23;20313;-55
2021/05/15 10:50:48;;;;;;;;;;;19.70;56.60;;;;;;5035639;28;19920;-54
2021/05/15 10:53:23;;;;;;;;;;;19.70;56.40;;;;;;5035850;28;19917;-55
2021/05/15 10:56:10;;;;;;;;;;;19.70;56.20;;;;;;5034749;28;19921;-57
2021/05/15 10:58:42;;;;;;;;;;;19.70;55.80;;;;;;5033594;28;20371;-58
2021/05/15 11:01:11;;;;;;;;;;;19.70;55.70;;;;;;5036658;28;19971;-58
2021/05/15 11:03:37;;;;;;;;;;;19.70;55.80;;;;;;5020233;28;19972;-56
2021/05/15 11:06:35;;;;;;;;;;;19.70;56.00;;;;;;5038037;28;20350;-54
2021/05/15 11:09:04;;;;;;;;;;;19.60;55.90;;;;;;4971702;28;19925;-57
2021/05/15 11:11:36;;;;;;;;;;;19.60;56.10;;;;;;5036941;28;19917;-56
2021/05/15 11:14:01;;;;;;;;;;;19.50;56.10;;;;;;5037047;28;19921;-58
2021/05/15 11:16:30;;;;;;;;;;;19.60;56.10;;;;;;5039178;28;19947;-54
2021/05/15 11:19:08;;;;;;;;;;;19.60;56.00;;;;;;5021007;28;21183;-58
2021/05/15 11:21:37;;;;;;;;;;;19.60;55.90;;;;;;5020134;28;19920;-56
2021/05/15 11:24:03;;;;;;;;;;;19.60;55.80;;;;;;5039684;28;20289;-55
2021/05/15 11:26:35;;;;;;;;;;;19.60;56.00;;;;;;5041699;28;19925;-57
2021/05/15 11:29:04;;;;;;;;;;;19.60;56.00;;;;;;5043125;28;19916;-56
2021/05/15 11:31:34;;;;;;;;;;;19.70;56.20;;;;;;5042104;28;19920;-54
2021/05/15 11:34:16;;;;;;;;;;;19.60;56.20;;;;;;5024611;28;20003;-54
2021/05/15 11:36:42;;;;;;;;;;;19.60;56.20;;;;;;5042666;28;19917;-57
2021/05/15 11:39:08;;;;;;;;;;;19.60;56.20;;;;;;5042618;28;19925;-51
2021/05/15 11:41:34;;;;;;;;;;;19.60;56.20;;;;;;5042697;28;19917;-55
2021/05/15 11:44:00;;;;;;;;;;;19.60;56.20;;;;;;5041795;28;19954;-57
2021/05/15 11:46:25;;;;;;;;;;;19.60;56.20;;;;;;5038822;28;19955;-54
2021/05/15 11:48:51;;;;;;;;;;;19.60;56.20;;;;;;5041869;28;20425;-54
2021/05/15 11:51:18;;;;;;;;;;;19.60;56.20;;;;;;5041470;28;19972;-53
2021/05/15 11:53:54;;;;;;;;;;;19.60;56.20;;;;;;5039522;28;19917;-56
2021/05/15 11:56:26;;;;;;;;;;;19.60;56.10;;;;;;5038371;28;19924;-54
2021/05/15 11:58:55;;;;;;;;;;;19.60;56.00;;;;;;5038780;28;19923;-57
2021/05/15 12:01:21;;;;;;;;;;;19.60;56.00;;;;;;5027006;28;19932;-55
2021/05/15 12:03:47;;;;;;;;;;;19.60;55.90;;;;;;4996517;28;19917;-55
2021/05/15 12:06:14;;;;;;;;;;;19.60;56.50;;;;;;5040848;28;20344;-54
2021/05/15 12:08:39;;;;;;;;;;;19.70;57.10;;;;;;5025621;28;19917;-56
2021/05/15 12:11:05;;;;;;;;;;;19.70;57.10;;;;;;5042890;28;20322;-54
2021/05/15 12:13:30;;;;;;;;;;;19.60;57.30;;;;;;5043435;28;19917;-55
2021/05/15 12:15:56;;;;;;;;;;;19.60;57.60;;;;;;5042967;28;19958;-53
2021/05/15 12:18:21;;;;;;;;;;;19.60;57.40;;;;;;5043210;28;19924;-54
2021/05/15 12:20:47;;;;;;;;;;;19.60;57.40;;;;;;5044671;28;19921;-52
2021/05/15 12:23:16;;;;;;;;;;;19.60;57.20;;;;;;5043722;28;19924;-54
2021/05/15 12:25:42;;;;;;;;;;;19.60;57.10;;;;;;5043528;28;19929;-55
2021/05/15 12:28:20;;;;;;;;;;;19.60;57.00;;;;;;5024739;28;19921;-54
2021/05/15 12:30:46;;;;;;;;;;;19.60;56.80;;;;;;5042036;28;20460;-58
2021/05/15 12:33:11;;;;;;;;;;;19.60;56.70;;;;;;5038940;28;19917;-56
2021/05/15 12:35:37;;;;;;;;;;;19.70;56.50;;;;;;5022852;28;20362;-56
2021/05/15 12:38:07;;;;;;;;;;;19.70;56.50;;;;;;5041118;28;19917;-54
2021/05/15 12:40:33;;;;;;;;;;;19.70;56.20;;;;;;5040258;28;19917;-55
2021/05/15 12:43:11;;;;;;;;;;;19.70;56.10;;;;;;5041309;28;19916;-53
2021/05/15 12:45:37;;;;;;;;;;;19.70;56.00;;;;;;5021738;28;19921;-54
2021/05/15 12:48:03;;;;;;;;;;;19.70;55.80;;;;;;5023013;28;20381;-55
2021/05/15 12:50:29;;;;;;;;;;;19.70;55.70;;;;;;5040751;28;19974;-57
2021/05/15 12:53:04;;;;;;;;;;;19.70;55.50;;;;;;5040301;28;20374;-55
2021/05/15 12:55:30;;;;;;;;;;;19.70;55.50;;;;;;5022703;28;19924;-58
2021/05/15 12:57:55;;;;;;;;;;;19.70;55.30;;;;;;5041886;28;20457;-56
2021/05/15 13:00:21;;;;;;;;;;;19.70;55.10;;;;;;5041922;28;19916;-61
2021/05/15 13:02:55;;;;;;;;;;;19.70;55.30;;;;;;5042275;28;19917;-55
2021/05/15 13:05:21;;;;;;;;;;;19.70;55.30;;;;;;5024050;28;19921;-58
2021/05/15 13:07:46;;;;;;;;;;;19.70;55.30;;;;;;5041191;28;19928;-57
2021/05/15 13:10:12;;;;;;;;;;;19.70;55.20;;;;;;5040740;28;19975;-54
2021/05/15 13:12:41;;;;;;;;;;;19.70;55.40;;;;;;5041854;28;19921;-56
2021/05/15 13:15:07;;;;;;;;;;;19.70;55.50;;;;;;5041509;28;20289;-56
2021/05/15 13:17:32;;;;;;;;;;;19.70;55.50;;;;;;5023578;28;20004;-55
2021/05/15 13:19:57;;;;;;;;;;;19.70;55.40;;;;;;5041745;28;20419;-56
2021/05/15 13:22:23;;;;;;;;;;;19.70;55.10;;;;;;5041950;28;19917;-54
2021/05/15 13:24:48;;;;;;;;;;;19.70;54.90;;;;;;5041709;28;20031;-53
2021/05/15 13:27:14;;;;;;;;;;;19.70;54.90;;;;;;5024213;28;20541;-55
2021/05/15 13:29:39;;;;;;;;;;;19.70;54.70;;;;;;5039815;28;19947;-55
2021/05/15 13:32:05;;;;;;;;;;;19.70;54.70;;;;;;5042333;28;19963;-56
2021/05/15 13:34:30;;;;;;;;;;;19.70;54.60;;;;;;5024176;28;19917;-58
2021/05/15 13:36:56;;;;;;;;;;;19.70;54.50;;;;;;5041270;28;20309;-57
2021/05/15 13:39:21;;;;;;;;;;;19.70;54.40;;;;;;5040373;28;19928;-60
2021/05/15 13:41:47;;;;;;;;;;;19.70;54.30;;;;;;5042207;28;19916;-56
2021/05/15 13:44:12;;;;;;;;;;;19.70;54.30;;;;;;5041012;28;19971;-57
2021/05/15 13:46:38;;;;;;;;;;;19.70;54.30;;;;;;5040451;28;19956;-53
2021/05/15 13:49:03;;;;;;;;;;;19.80;54.20;;;;;;5041493;28;20609;-56
2021/05/15 13:51:29;;;;;;;;;;;19.70;54.20;;;;;;5041095;28;20008;-54
2021/05/15 13:53:54;;;;;;;;;;;19.70;54.30;;;;;;5041600;28;19982;-57
2021/05/15 13:56:20;;;;;;;;;;;19.70;54.40;;;;;;5042355;28;19920;-53
2021/05/15 13:58:45;;;;;;;;;;;19.70;54.50;;;;;;5042285;28;20405;-57
2021/05/15 14:01:11;;;;;;;;;;;19.70;54.90;;;;;;5042240;28;20370;-55
2021/05/15 14:03:37;;;;;;;;;;;19.70;55.10;;;;;;5042009;28;19916;-52
2021/05/15 14:06:02;;;;;;;;;;;19.70;55.40;;;;;;5024369;28;20374;-55
2021/05/15 14:08:28;;;;;;;;;;;19.70;55.60;;;;;;5042107;28;19996;-56
2021/05/15 14:10:53;;;;;;;;;;;19.70;55.80;;;;;;5041889;28;19929;-59
2021/05/15 14:13:19;;;;;;;;;;;19.60;55.90;;;;;;5042101;28;19917;-50
2021/05/15 14:15:45;;;;;;;;;;;19.70;56.00;;;;;;5041621;28;20267;-53